sensor_id;sensor_type;location;lat;lon;timestamp;temperature;humidity
23869;DHT22;12115;47.128;15.422;2022-10-31T00:01:29;11.00;99.90
23869;DHT22;12115;47.128;15.422;2022-10-31T00:03:57;11.00;99.90
23869;DHT22;12115;47.128;15.422;2022-10-31T00:06:24;11.00;99.90
23869;DHT22;12115;47.128;15.422;2022-10-31T00:09:00;10.90;99.90
23869;DHT22;12115;47.128;15.422;2022-10-31T00:11:27;10.90;99.90
23869;DHT22;12115;47.128;15.422;2022-10-31T00:13:54;10.80;99.90
23869;DHT22;12115;47.128;15.422;2022-10-31T00:16:23;10.80;99.90
23869;DHT22;12115;47.128;15.422;2022-10-31T00:18:52;10.80;99.90
23869;DHT22;12115;47.128;15.422;2022-10-31T00:21:19;10.80;99.90
23869;DHT22;12115;47.128;15.422;2022-10-31T00:23:46;10.80;99.90
23869;DHT22;12115;47.128;15.422;2022-10-31T00:26:14;10.80;99.90
23869;DHT22;12115;47.128;15.422;2022-10-31T00:28:41;10.80;99.90
23869;DHT22;12115;47.128;15.422;2022-10-31T00:31:10;10.70;99.90
23869;DHT22;12115;47.128;15.422;2022-10-31T00:33:38;10.70;99.90
23869;DHT22;12115;47.128;15.422;2022-10-31T00:36:06;10.60;99.90
23869;DHT22;12115;47.128;15.422;2022-10-31T00:38:34;10.60;99.90
23869;DHT22;12115;47.128;15.422;2022-10-31T00:41:01;10.60;99.90
23869;DHT22;12115;47.128;15.422;2022-10-31T00:43:28;10.60;99.90
23869;DHT22;12115;47.128;15.422;2022-10-31T00:45:55;10.60;99.90
23869;DHT22;12115;47.128;15.422;2022-10-31T00:48:23;10.60;99.90
23869;DHT22;12115;47.128;15.422;2022-10-31T00:50:52;10.60;99.90
23869;DHT22;12115;47.128;15.422;2022-10-31T00:53:19;10.50;99.90
23869;DHT22;12115;47.128;15.422;2022-10-31T00:55:46;10.50;99.90
23869;DHT22;12115;47.128;15.422;2022-10-31T00:58:13;10.50;99.90
23869;DHT22;12115;47.128;15.422;2022-10-31T01:00:49;10.40;99.90
23869;DHT22;12115;47.128;15.422;2022-10-31T01:03:25;10.40;99.90
23869;DHT22;12115;47.128;15.422;2022-10-31T01:08:34;10.40;99.90
23869;DHT22;12115;47.128;15.422;2022-10-31T01:11:12;10.40;99.90
23869;DHT22;12115;47.128;15.422;2022-10-31T01:13:40;10.40;99.90
23869;DHT22;12115;47.128;15.422;2022-10-31T01:16:10;10.40;99.90
23869;DHT22;12115;47.128;15.422;2022-10-31T01:18:37;10.40;99.90
23869;DHT22;12115;47.128;15.422;2022-10-31T01:21:10;10.30;99.90
23869;DHT22;12115;47.128;15.422;2022-10-31T01:23:38;10.30;99.90
23869;DHT22;12115;47.128;15.422;2022-10-31T01:28:55;10.30;99.90
23869;DHT22;12115;47.128;15.422;2022-10-31T01:31:28;10.30;99.90
23869;DHT22;12115;47.128;15.422;2022-10-31T01:33:55;10.20;99.90
23869;DHT22;12115;47.128;15.422;2022-10-31T01:36:33;10.20;99.90
23869;DHT22;12115;47.128;15.422;2022-10-31T01:39:04;10.20;99.90
23869;DHT22;12115;47.128;15.422;2022-10-31T01:41:35;10.10;99.90
23869;DHT22;12115;47.128;15.422;2022-10-31T01:47:11;10.20;99.90
23869;DHT22;12115;47.128;15.422;2022-10-31T01:49:57;10.10;99.90
23869;DHT22;12115;47.128;15.422;2022-10-31T01:52:35;10.10;99.90
23869;DHT22;12115;47.128;15.422;2022-10-31T01:55:34;10.10;99.90
23869;DHT22;12115;47.128;15.422;2022-10-31T01:58:06;10.10;99.90
23869;DHT22;12115;47.128;15.422;2022-10-31T02:00:34;10.00;99.90
23869;DHT22;12115;47.128;15.422;2022-10-31T02:03:01;10.10;99.90
23869;DHT22;12115;47.128;15.422;2022-10-31T02:05:30;10.00;99.90
23869;DHT22;12115;47.128;15.422;2022-10-31T02:08:08;10.00;99.90
23869;DHT22;12115;47.128;15.422;2022-10-31T02:10:37;10.00;99.90
23869;DHT22;12115;47.128;15.422;2022-10-31T02:13:08;9.90;99.90
23869;DHT22;12115;47.128;15.422;2022-10-31T02:15:44;10.00;99.90
23869;DHT22;12115;47.128;15.422;2022-10-31T02:18:12;9.90;99.90
23869;DHT22;12115;47.128;15.422;2022-10-31T02:30:27;9.90;99.90
23869;DHT22;12115;47.128;15.422;2022-10-31T02:44:06;9.80;99.90
23869;DHT22;12115;47.128;15.422;2022-10-31T02:46:54;9.70;99.90
23869;DHT22;12115;47.128;15.422;2022-10-31T02:49:38;9.70;99.90
23869;DHT22;12115;47.128;15.422;2022-10-31T02:52:26;9.70;99.90
23869;DHT22;12115;47.128;15.422;2022-10-31T02:55:40;9.70;99.90
23869;DHT22;12115;47.128;15.422;2022-10-31T02:58:17;9.70;99.90
23869;DHT22;12115;47.128;15.422;2022-10-31T03:00:57;9.70;99.90
23869;DHT22;12115;47.128;15.422;2022-10-31T03:14:56;9.60;99.90
23869;DHT22;12115;47.128;15.422;2022-10-31T03:17:38;9.60;99.90
23869;DHT22;12115;47.128;15.422;2022-10-31T03:20:10;9.60;99.90
23869;DHT22;12115;47.128;15.422;2022-10-31T03:22:39;9.50;99.90
23869;DHT22;12115;47.128;15.422;2022-10-31T03:25:09;9.50;99.90
23869;DHT22;12115;47.128;15.422;2022-10-31T03:27:37;9.50;99.90
23869;DHT22;12115;47.128;15.422;2022-10-31T03:30:06;9.50;99.90
23869;DHT22;12115;47.128;15.422;2022-10-31T03:32:53;9.50;99.90
23869;DHT22;12115;47.128;15.422;2022-10-31T03:35:22;9.40;99.90
23869;DHT22;12115;47.128;15.422;2022-10-31T03:37:51;9.50;99.90
23869;DHT22;12115;47.128;15.422;2022-10-31T03:40:31;9.40;99.90
23869;DHT22;12115;47.128;15.422;2022-10-31T03:43:46;9.40;99.90
23869;DHT22;12115;47.128;15.422;2022-10-31T03:46:53;9.40;99.90
23869;DHT22;12115;47.128;15.422;2022-10-31T03:49:38;9.40;99.90
23869;DHT22;12115;47.128;15.422;2022-10-31T03:58:48;9.30;99.90
23869;DHT22;12115;47.128;15.422;2022-10-31T04:01:30;9.30;99.90
23869;DHT22;12115;47.128;15.422;2022-10-31T04:04:21;9.20;99.90
23869;DHT22;12115;47.128;15.422;2022-10-31T04:06:59;9.30;99.90
23869;DHT22;12115;47.128;15.422;2022-10-31T04:09:32;9.20;99.90
23869;DHT22;12115;47.128;15.422;2022-10-31T04:12:09;9.20;99.90
23869;DHT22;12115;47.128;15.422;2022-10-31T04:15:00;9.30;99.90
23869;DHT22;12115;47.128;15.422;2022-10-31T04:17:31;9.20;99.90
23869;DHT22;12115;47.128;15.422;2022-10-31T04:20:09;9.20;99.90
23869;DHT22;12115;47.128;15.422;2022-10-31T04:22:51;9.20;99.90
23869;DHT22;12115;47.128;15.422;2022-10-31T04:25:20;9.20;99.90
23869;DHT22;12115;47.128;15.422;2022-10-31T04:28:04;9.10;99.90
23869;DHT22;12115;47.128;15.422;2022-10-31T04:30:36;9.20;99.90
23869;DHT22;12115;47.128;15.422;2022-10-31T04:33:06;9.10;99.90
23869;DHT22;12115;47.128;15.422;2022-10-31T04:35:47;9.10;99.90
23869;DHT22;12115;47.128;15.422;2022-10-31T04:38:26;9.10;99.90
23869;DHT22;12115;47.128;15.422;2022-10-31T04:41:03;9.10;99.90
23869;DHT22;12115;47.128;15.422;2022-10-31T04:43:55;9.20;99.90
23869;DHT22;12115;47.128;15.422;2022-10-31T04:46:32;9.10;99.90
23869;DHT22;12115;47.128;15.422;2022-10-31T04:49:12;9.10;99.90
23869;DHT22;12115;47.128;15.422;2022-10-31T04:51:46;9.10;99.90
23869;DHT22;12115;47.128;15.422;2022-10-31T04:54:17;9.10;99.90
23869;DHT22;12115;47.128;15.422;2022-10-31T04:57:05;9.00;99.90
23869;DHT22;12115;47.128;15.422;2022-10-31T04:59:39;9.00;99.90
23869;DHT22;12115;47.128;15.422;2022-10-31T05:02:08;9.10;99.90
23869;DHT22;12115;47.128;15.422;2022-10-31T05:04:49;9.10;99.90
23869;DHT22;12115;47.128;15.422;2022-10-31T05:07:20;9.00;99.90
23869;DHT22;12115;47.128;15.422;2022-10-31T05:09:56;9.00;99.90
23869;DHT22;12115;47.128;15.422;2022-10-31T05:12:35;9.00;99.90
23869;DHT22;12115;47.128;15.422;2022-10-31T05:15:25;9.00;99.90
23869;DHT22;12115;47.128;15.422;2022-10-31T05:18:35;9.00;99.90
23869;DHT22;12115;47.128;15.422;2022-10-31T05:21:46;9.00;99.90
23869;DHT22;12115;47.128;15.422;2022-10-31T05:24:14;8.90;99.90
23869;DHT22;12115;47.128;15.422;2022-10-31T05:26:47;8.90;99.90
23869;DHT22;12115;47.128;15.422;2022-10-31T05:29:22;8.90;99.90
23869;DHT22;12115;47.128;15.422;2022-10-31T05:31:50;8.90;99.90
23869;DHT22;12115;47.128;15.422;2022-10-31T05:34:41;8.90;99.90
23869;DHT22;12115;47.128;15.422;2022-10-31T05:37:28;8.90;99.90
23869;DHT22;12115;47.128;15.422;2022-10-31T05:39:59;8.80;99.90
23869;DHT22;12115;47.128;15.422;2022-10-31T05:42:34;8.90;99.90
23869;DHT22;12115;47.128;15.422;2022-10-31T05:45:10;8.90;99.90
23869;DHT22;12115;47.128;15.422;2022-10-31T05:47:57;8.80;99.90
23869;DHT22;12115;47.128;15.422;2022-10-31T05:50:47;8.80;99.90
23869;DHT22;12115;47.128;15.422;2022-10-31T05:53:15;8.80;99.90
23869;DHT22;12115;47.128;15.422;2022-10-31T05:55:44;8.90;99.90
23869;DHT22;12115;47.128;15.422;2022-10-31T05:58:21;8.80;99.90
23869;DHT22;12115;47.128;15.422;2022-10-31T06:00:57;8.80;99.90
23869;DHT22;12115;47.128;15.422;2022-10-31T06:03:25;8.80;99.90
23869;DHT22;12115;47.128;15.422;2022-10-31T06:05:57;8.90;99.90
23869;DHT22;12115;47.128;15.422;2022-10-31T06:08:30;8.90;99.90
23869;DHT22;12115;47.128;15.422;2022-10-31T06:11:04;8.90;99.90
23869;DHT22;12115;47.128;15.422;2022-10-31T06:13:53;9.00;99.90
23869;DHT22;12115;47.128;15.422;2022-10-31T06:16:24;9.00;99.90
23869;DHT22;12115;47.128;15.422;2022-10-31T06:18:55;9.00;99.90
23869;DHT22;12115;47.128;15.422;2022-10-31T06:21:26;9.10;99.90
23869;DHT22;12115;47.128;15.422;2022-10-31T06:24:00;9.10;99.90
23869;DHT22;12115;47.128;15.422;2022-10-31T06:26:57;9.20;99.90
23869;DHT22;12115;47.128;15.422;2022-10-31T06:29:28;9.40;99.90
23869;DHT22;12115;47.128;15.422;2022-10-31T06:32:03;9.40;99.90
23869;DHT22;12115;47.128;15.422;2022-10-31T06:34:39;9.60;99.90
23869;DHT22;12115;47.128;15.422;2022-10-31T06:37:11;9.70;99.90
23869;DHT22;12115;47.128;15.422;2022-10-31T06:39:42;9.90;99.90
23869;DHT22;12115;47.128;15.422;2022-10-31T06:42:12;10.10;99.90
23869;DHT22;12115;47.128;15.422;2022-10-31T06:44:43;10.30;99.90
23869;DHT22;12115;47.128;15.422;2022-10-31T06:47:43;10.50;99.90
23869;DHT22;12115;47.128;15.422;2022-10-31T06:50:46;10.90;99.90
23869;DHT22;12115;47.128;15.422;2022-10-31T06:53:16;11.30;99.90
23869;DHT22;12115;47.128;15.422;2022-10-31T06:55:49;11.80;99.90
23869;DHT22;12115;47.128;15.422;2022-10-31T06:58:17;12.20;99.90
23869;DHT22;12115;47.128;15.422;2022-10-31T07:00:46;12.70;99.90
23869;DHT22;12115;47.128;15.422;2022-10-31T07:03:15;13.10;99.90
23869;DHT22;12115;47.128;15.422;2022-10-31T07:05:44;13.60;99.90
23869;DHT22;12115;47.128;15.422;2022-10-31T07:08:14;14.10;99.90
23869;DHT22;12115;47.128;15.422;2022-10-31T07:10:43;14.70;99.90
23869;DHT22;12115;47.128;15.422;2022-10-31T07:13:18;15.10;99.90
23869;DHT22;12115;47.128;15.422;2022-10-31T07:16:02;15.60;99.90
23869;DHT22;12115;47.128;15.422;2022-10-31T07:18:33;16.20;99.90
23869;DHT22;12115;47.128;15.422;2022-10-31T07:21:02;16.80;99.90
23869;DHT22;12115;47.128;15.422;2022-10-31T07:23:30;17.40;99.90
23869;DHT22;12115;47.128;15.422;2022-10-31T07:26:21;18.00;99.90
23869;DHT22;12115;47.128;15.422;2022-10-31T07:28:49;18.70;99.90
23869;DHT22;12115;47.128;15.422;2022-10-31T07:31:20;19.20;99.90
23869;DHT22;12115;47.128;15.422;2022-10-31T07:33:52;19.80;99.90
23869;DHT22;12115;47.128;15.422;2022-10-31T07:36:40;20.40;99.90
23869;DHT22;12115;47.128;15.422;2022-10-31T07:39:12;20.90;99.90
23869;DHT22;12115;47.128;15.422;2022-10-31T07:41:41;21.30;99.90
23869;DHT22;12115;47.128;15.422;2022-10-31T07:44:17;21.60;99.90
23869;DHT22;12115;47.128;15.422;2022-10-31T07:47:03;22.10;99.90
23869;DHT22;12115;47.128;15.422;2022-10-31T07:49:54;22.50;99.90
23869;DHT22;12115;47.128;15.422;2022-10-31T07:53:01;23.00;99.90
23869;DHT22;12115;47.128;15.422;2022-10-31T07:55:57;23.50;99.90
23869;DHT22;12115;47.128;15.422;2022-10-31T07:58:29;24.10;99.00
23869;DHT22;12115;47.128;15.422;2022-10-31T08:00:58;24.30;97.60
23869;DHT22;12115;47.128;15.422;2022-10-31T08:03:35;24.50;97.30
23869;DHT22;12115;47.128;15.422;2022-10-31T08:06:21;24.80;95.80
23869;DHT22;12115;47.128;15.422;2022-10-31T08:09:11;24.90;95.40
23869;DHT22;12115;47.128;15.422;2022-10-31T08:11:43;25.30;93.80
23869;DHT22;12115;47.128;15.422;2022-10-31T08:14:15;25.70;92.00
23869;DHT22;12115;47.128;15.422;2022-10-31T08:16:43;26.10;91.30
23869;DHT22;12115;47.128;15.422;2022-10-31T08:19:12;26.50;89.00
23869;DHT22;12115;47.128;15.422;2022-10-31T08:21:40;27.00;86.90
23869;DHT22;12115;47.128;15.422;2022-10-31T08:24:08;27.80;85.20
23869;DHT22;12115;47.128;15.422;2022-10-31T08:26:38;28.40;82.60
23869;DHT22;12115;47.128;15.422;2022-10-31T08:29:09;28.80;79.20
23869;DHT22;12115;47.128;15.422;2022-10-31T08:31:38;29.20;76.80
23869;DHT22;12115;47.128;15.422;2022-10-31T08:34:29;30.00;74.00
23869;DHT22;12115;47.128;15.422;2022-10-31T08:37:18;30.10;72.60
23869;DHT22;12115;47.128;15.422;2022-10-31T08:39:54;30.60;69.30
23869;DHT22;12115;47.128;15.422;2022-10-31T08:42:22;30.80;66.00
23869;DHT22;12115;47.128;15.422;2022-10-31T08:44:51;31.50;65.00
23869;DHT22;12115;47.128;15.422;2022-10-31T08:47:23;31.90;63.10
23869;DHT22;12115;47.128;15.422;2022-10-31T08:49:56;32.50;62.00
23869;DHT22;12115;47.128;15.422;2022-10-31T08:52:26;32.80;59.20
23869;DHT22;12115;47.128;15.422;2022-10-31T08:55:15;33.20;58.10
23869;DHT22;12115;47.128;15.422;2022-10-31T08:57:45;33.80;56.90
23869;DHT22;12115;47.128;15.422;2022-10-31T09:00:13;34.40;55.10
23869;DHT22;12115;47.128;15.422;2022-10-31T09:02:41;34.80;54.00
23869;DHT22;12115;47.128;15.422;2022-10-31T09:05:09;35.10;54.20
23869;DHT22;12115;47.128;15.422;2022-10-31T09:07:37;35.40;52.20
23869;DHT22;12115;47.128;15.422;2022-10-31T09:10:08;35.20;52.30
23869;DHT22;12115;47.128;15.422;2022-10-31T09:12:37;35.80;51.10
23869;DHT22;12115;47.128;15.422;2022-10-31T09:15:08;35.60;50.10
23869;DHT22;12115;47.128;15.422;2022-10-31T09:17:46;36.00;48.90
23869;DHT22;12115;47.128;15.422;2022-10-31T09:20:30;35.90;48.90
23869;DHT22;12115;47.128;15.422;2022-10-31T09:23:26;36.60;47.90
23869;DHT22;12115;47.128;15.422;2022-10-31T09:26:01;36.50;47.10
23869;DHT22;12115;47.128;15.422;2022-10-31T09:28:41;36.80;46.90
23869;DHT22;12115;47.128;15.422;2022-10-31T09:31:12;37.00;46.50
23869;DHT22;12115;47.128;15.422;2022-10-31T09:33:48;37.40;45.20
23869;DHT22;12115;47.128;15.422;2022-10-31T09:36:45;37.40;44.60
23869;DHT22;12115;47.128;15.422;2022-10-31T09:39:18;37.60;44.70
23869;DHT22;12115;47.128;15.422;2022-10-31T09:51:50;37.40;43.30
23869;DHT22;12115;47.128;15.422;2022-10-31T09:57:13;38.20;43.10
23869;DHT22;12115;47.128;15.422;2022-10-31T09:59:47;38.10;42.00
23869;DHT22;12115;47.128;15.422;2022-10-31T10:02:36;38.70;41.40
23869;DHT22;12115;47.128;15.422;2022-10-31T10:05:11;38.60;42.40
23869;DHT22;12115;47.128;15.422;2022-10-31T10:08:09;39.30;42.00
23869;DHT22;12115;47.128;15.422;2022-10-31T10:11:16;38.90;41.30
23869;DHT22;12115;47.128;15.422;2022-10-31T10:14:06;38.50;41.10
23869;DHT22;12115;47.128;15.422;2022-10-31T10:20:10;37.90;41.30
23869;DHT22;12115;47.128;15.422;2022-10-31T10:25:39;37.80;40.60
23869;DHT22;12115;47.128;15.422;2022-10-31T10:28:21;37.60;42.00
23869;DHT22;12115;47.128;15.422;2022-10-31T10:30:57;37.80;41.00
23869;DHT22;12115;47.128;15.422;2022-10-31T10:36:16;37.30;40.40
23869;DHT22;12115;47.128;15.422;2022-10-31T10:38:58;37.10;41.30
23869;DHT22;12115;47.128;15.422;2022-10-31T10:41:31;36.90;40.60
23869;DHT22;12115;47.128;15.422;2022-10-31T10:44:01;36.80;41.20
23869;DHT22;12115;47.128;15.422;2022-10-31T10:49:40;35.80;42.60
23869;DHT22;12115;47.128;15.422;2022-10-31T10:55:29;34.90;42.70
23869;DHT22;12115;47.128;15.422;2022-10-31T10:58:10;34.80;42.90
23869;DHT22;12115;47.128;15.422;2022-10-31T11:00:45;34.30;44.10
23869;DHT22;12115;47.128;15.422;2022-10-31T11:03:15;33.40;45.20
23869;DHT22;12115;47.128;15.422;2022-10-31T11:05:58;32.40;46.30
23869;DHT22;12115;47.128;15.422;2022-10-31T11:08:31;31.40;48.20
23869;DHT22;12115;47.128;15.422;2022-10-31T11:11:14;29.60;51.60
23869;DHT22;12115;47.128;15.422;2022-10-31T11:13:55;28.20;54.80
23869;DHT22;12115;47.128;15.422;2022-10-31T11:16:36;27.00;57.40
23869;DHT22;12115;47.128;15.422;2022-10-31T11:19:13;26.50;59.50
23869;DHT22;12115;47.128;15.422;2022-10-31T11:21:44;26.20;60.50
23869;DHT22;12115;47.128;15.422;2022-10-31T11:24:21;25.90;60.50
23869;DHT22;12115;47.128;15.422;2022-10-31T11:29:41;25.30;64.10
23869;DHT22;12115;47.128;15.422;2022-10-31T11:32:27;25.10;63.80
23869;DHT22;12115;47.128;15.422;2022-10-31T11:35:03;25.10;65.00
23869;DHT22;12115;47.128;15.422;2022-10-31T11:37:42;24.80;65.10
23869;DHT22;12115;47.128;15.422;2022-10-31T11:40:22;24.70;66.60
23869;DHT22;12115;47.128;15.422;2022-10-31T11:42:57;24.90;67.00
23869;DHT22;12115;47.128;15.422;2022-10-31T11:45:34;24.80;66.80
23869;DHT22;12115;47.128;15.422;2022-10-31T11:48:16;24.80;66.80
23869;DHT22;12115;47.128;15.422;2022-10-31T11:50:54;24.60;68.10
23869;DHT22;12115;47.128;15.422;2022-10-31T11:53:32;24.20;69.30
23869;DHT22;12115;47.128;15.422;2022-10-31T11:56:16;23.90;70.10
23869;DHT22;12115;47.128;15.422;2022-10-31T11:58:59;24.00;71.50
23869;DHT22;12115;47.128;15.422;2022-10-31T12:01:32;23.90;70.80
23869;DHT22;12115;47.128;15.422;2022-10-31T12:04:10;23.90;71.40
23869;DHT22;12115;47.128;15.422;2022-10-31T12:06:42;23.90;71.30
23869;DHT22;12115;47.128;15.422;2022-10-31T12:09:30;23.80;72.20
23869;DHT22;12115;47.128;15.422;2022-10-31T12:12:05;23.60;73.30
23869;DHT22;12115;47.128;15.422;2022-10-31T12:17:52;23.30;74.00
23869;DHT22;12115;47.128;15.422;2022-10-31T12:26:19;23.10;75.60
23869;DHT22;12115;47.128;15.422;2022-10-31T12:31:49;22.90;76.10
23869;DHT22;12115;47.128;15.422;2022-10-31T12:45:57;22.80;76.10
23869;DHT22;12115;47.128;15.422;2022-10-31T12:52:06;22.70;77.10
23869;DHT22;12115;47.128;15.422;2022-10-31T12:54:54;22.60;77.80
23869;DHT22;12115;47.128;15.422;2022-10-31T12:57:39;22.40;78.60
23869;DHT22;12115;47.128;15.422;2022-10-31T13:00:18;22.40;79.30
23869;DHT22;12115;47.128;15.422;2022-10-31T13:03:44;22.50;79.50
23869;DHT22;12115;47.128;15.422;2022-10-31T13:06:02;22.50;79.60
23869;DHT22;12115;47.128;15.422;2022-10-31T13:09:02;22.50;80.30
23869;DHT22;12115;47.128;15.422;2022-10-31T13:12:07;22.50;81.00
23869;DHT22;12115;47.128;15.422;2022-10-31T13:14:49;22.40;81.00
23869;DHT22;12115;47.128;15.422;2022-10-31T13:17:35;22.40;80.90
23869;DHT22;12115;47.128;15.422;2022-10-31T13:20:28;22.30;81.70
23869;DHT22;12115;47.128;15.422;2022-10-31T13:23:48;22.30;81.60
23869;DHT22;12115;47.128;15.422;2022-10-31T13:26:50;22.30;82.40
23869;DHT22;12115;47.128;15.422;2022-10-31T13:32:05;22.10;83.20
23869;DHT22;12115;47.128;15.422;2022-10-31T13:34:55;22.10;83.90
23869;DHT22;12115;47.128;15.422;2022-10-31T13:37:41;22.10;83.60
23869;DHT22;12115;47.128;15.422;2022-10-31T13:40:38;22.00;84.00
23869;DHT22;12115;47.128;15.422;2022-10-31T13:43:20;22.10;84.10
23869;DHT22;12115;47.128;15.422;2022-10-31T13:45:55;22.10;84.30
23869;DHT22;12115;47.128;15.422;2022-10-31T13:48:41;22.10;84.80
23869;DHT22;12115;47.128;15.422;2022-10-31T13:51:29;22.00;85.40
23869;DHT22;12115;47.128;15.422;2022-10-31T13:54:05;21.90;85.70
23869;DHT22;12115;47.128;15.422;2022-10-31T13:56:47;21.80;86.40
23869;DHT22;12115;47.128;15.422;2022-10-31T13:59:24;21.70;86.50
23869;DHT22;12115;47.128;15.422;2022-10-31T14:04:28;21.70;87.80
23869;DHT22;12115;47.128;15.422;2022-10-31T14:07:12;21.60;87.70
23869;DHT22;12115;47.128;15.422;2022-10-31T14:10:02;21.50;87.60
23869;DHT22;12115;47.128;15.422;2022-10-31T14:12:40;21.40;88.50
23869;DHT22;12115;47.128;15.422;2022-10-31T14:15:26;21.30;88.60
23869;DHT22;12115;47.128;15.422;2022-10-31T14:18:34;21.30;89.70
23869;DHT22;12115;47.128;15.422;2022-10-31T14:21:28;21.20;90.40
23869;DHT22;12115;47.128;15.422;2022-10-31T14:24:00;21.30;90.40
23869;DHT22;12115;47.128;15.422;2022-10-31T14:26:33;21.20;90.60
23869;DHT22;12115;47.128;15.422;2022-10-31T14:34:39;21.00;91.60
23869;DHT22;12115;47.128;15.422;2022-10-31T14:43:51;20.90;92.70
23869;DHT22;12115;47.128;15.422;2022-10-31T14:46:48;20.80;93.10
23869;DHT22;12115;47.128;15.422;2022-10-31T14:52:36;20.70;93.60
23869;DHT22;12115;47.128;15.422;2022-10-31T14:55:10;20.60;93.80
23869;DHT22;12115;47.128;15.422;2022-10-31T14:57:54;20.50;94.10
23869;DHT22;12115;47.128;15.422;2022-10-31T15:00:24;20.50;94.30
23869;DHT22;12115;47.128;15.422;2022-10-31T15:03:12;20.50;94.80
23869;DHT22;12115;47.128;15.422;2022-10-31T15:05:52;20.40;95.10
23869;DHT22;12115;47.128;15.422;2022-10-31T15:08:32;20.30;95.90
23869;DHT22;12115;47.128;15.422;2022-10-31T15:11:23;20.20;96.40
23869;DHT22;12115;47.128;15.422;2022-10-31T15:13:57;20.10;96.60
23869;DHT22;12115;47.128;15.422;2022-10-31T15:16:33;20.10;96.60
23869;DHT22;12115;47.128;15.422;2022-10-31T15:19:07;20.00;97.00
23869;DHT22;12115;47.128;15.422;2022-10-31T15:21:50;19.90;97.40
23869;DHT22;12115;47.128;15.422;2022-10-31T15:24:20;19.80;97.80
23869;DHT22;12115;47.128;15.422;2022-10-31T15:26:54;19.70;98.20
23869;DHT22;12115;47.128;15.422;2022-10-31T15:29:28;19.60;98.40
23869;DHT22;12115;47.128;15.422;2022-10-31T15:32:15;19.50;98.80
23869;DHT22;12115;47.128;15.422;2022-10-31T15:34:52;19.50;99.10
23869;DHT22;12115;47.128;15.422;2022-10-31T15:37:25;19.20;99.90
23869;DHT22;12115;47.128;15.422;2022-10-31T15:39:54;19.10;99.90
23869;DHT22;12115;47.128;15.422;2022-10-31T15:47:38;18.80;99.90
23869;DHT22;12115;47.128;15.422;2022-10-31T15:50:24;18.60;99.90
23869;DHT22;12115;47.128;15.422;2022-10-31T15:52:57;18.50;99.90
23869;DHT22;12115;47.128;15.422;2022-10-31T15:55:31;18.40;99.90
23869;DHT22;12115;47.128;15.422;2022-10-31T15:58:10;18.30;99.90
23869;DHT22;12115;47.128;15.422;2022-10-31T16:01:04;18.20;99.90
23869;DHT22;12115;47.128;15.422;2022-10-31T16:03:37;18.10;99.90
23869;DHT22;12115;47.128;15.422;2022-10-31T16:06:20;18.00;99.90
23869;DHT22;12115;47.128;15.422;2022-10-31T16:08:51;17.80;99.90
23869;DHT22;12115;47.128;15.422;2022-10-31T16:11:29;17.80;99.90
23869;DHT22;12115;47.128;15.422;2022-10-31T16:14:04;17.50;99.90
23869;DHT22;12115;47.128;15.422;2022-10-31T16:16:44;17.50;99.90
23869;DHT22;12115;47.128;15.422;2022-10-31T16:19:21;17.50;99.90
23869;DHT22;12115;47.128;15.422;2022-10-31T16:22:03;17.40;99.90
23869;DHT22;12115;47.128;15.422;2022-10-31T16:27:25;17.30;99.90
23869;DHT22;12115;47.128;15.422;2022-10-31T16:30:02;16.90;99.90
23869;DHT22;12115;47.128;15.422;2022-10-31T16:32:50;16.70;99.90
23869;DHT22;12115;47.128;15.422;2022-10-31T16:35:38;16.60;99.90
23869;DHT22;12115;47.128;15.422;2022-10-31T16:38:06;16.70;99.90
23869;DHT22;12115;47.128;15.422;2022-10-31T16:40:38;16.50;99.90
23869;DHT22;12115;47.128;15.422;2022-10-31T16:43:13;16.20;99.90
23869;DHT22;12115;47.128;15.422;2022-10-31T16:45:44;16.30;99.90
23869;DHT22;12115;47.128;15.422;2022-10-31T16:48:17;16.30;99.90
23869;DHT22;12115;47.128;15.422;2022-10-31T16:50:48;16.30;99.90
23869;DHT22;12115;47.128;15.422;2022-10-31T16:53:16;16.30;99.90
23869;DHT22;12115;47.128;15.422;2022-10-31T16:55:56;16.30;99.90
23869;DHT22;12115;47.128;15.422;2022-10-31T16:58:30;16.20;99.90
23869;DHT22;12115;47.128;15.422;2022-10-31T17:01:04;16.20;99.90
23869;DHT22;12115;47.128;15.422;2022-10-31T17:03:37;16.10;99.90
23869;DHT22;12115;47.128;15.422;2022-10-31T17:06:17;15.90;99.90
23869;DHT22;12115;47.128;15.422;2022-10-31T17:08:54;15.70;99.90
23869;DHT22;12115;47.128;15.422;2022-10-31T17:11:24;15.70;99.90
23869;DHT22;12115;47.128;15.422;2022-10-31T17:13:54;15.70;99.90
23869;DHT22;12115;47.128;15.422;2022-10-31T17:16:23;15.70;99.90
23869;DHT22;12115;47.128;15.422;2022-10-31T17:18:52;15.50;99.90
23869;DHT22;12115;47.128;15.422;2022-10-31T17:21:24;15.50;99.90
23869;DHT22;12115;47.128;15.422;2022-10-31T17:23:54;15.40;99.90
23869;DHT22;12115;47.128;15.422;2022-10-31T17:26:25;15.40;99.90
23869;DHT22;12115;47.128;15.422;2022-10-31T17:28:59;15.40;99.90
23869;DHT22;12115;47.128;15.422;2022-10-31T17:31:32;15.10;99.90
23869;DHT22;12115;47.128;15.422;2022-10-31T17:34:06;15.20;99.90
23869;DHT22;12115;47.128;15.422;2022-10-31T17:36:35;15.10;99.90
23869;DHT22;12115;47.128;15.422;2022-10-31T17:39:04;15.00;99.90
23869;DHT22;12115;47.128;15.422;2022-10-31T17:41:34;14.80;99.90
23869;DHT22;12115;47.128;15.422;2022-10-31T17:44:02;14.80;99.90
23869;DHT22;12115;47.128;15.422;2022-10-31T17:46:33;14.70;99.90
23869;DHT22;12115;47.128;15.422;2022-10-31T17:49:05;14.80;99.90
23869;DHT22;12115;47.128;15.422;2022-10-31T17:51:34;14.70;99.90
23869;DHT22;12115;47.128;15.422;2022-10-31T17:54:05;14.70;99.90
23869;DHT22;12115;47.128;15.422;2022-10-31T17:56:35;14.50;99.90
23869;DHT22;12115;47.128;15.422;2022-10-31T17:59:07;14.60;99.90
23869;DHT22;12115;47.128;15.422;2022-10-31T18:01:40;14.60;99.90
23869;DHT22;12115;47.128;15.422;2022-10-31T18:04:09;14.60;99.90
23869;DHT22;12115;47.128;15.422;2022-10-31T18:06:41;14.50;99.90
23869;DHT22;12115;47.128;15.422;2022-10-31T18:09:09;14.50;99.90
23869;DHT22;12115;47.128;15.422;2022-10-31T18:11:39;14.40;99.90
23869;DHT22;12115;47.128;15.422;2022-10-31T18:14:08;14.40;99.90
23869;DHT22;12115;47.128;15.422;2022-10-31T18:16:40;14.40;99.90
23869;DHT22;12115;47.128;15.422;2022-10-31T18:19:12;14.30;99.90
23869;DHT22;12115;47.128;15.422;2022-10-31T18:21:49;14.20;99.90
23869;DHT22;12115;47.128;15.422;2022-10-31T18:24:20;14.10;99.90
23869;DHT22;12115;47.128;15.422;2022-10-31T18:26:48;14.10;99.90
23869;DHT22;12115;47.128;15.422;2022-10-31T18:29:25;13.80;99.90
23869;DHT22;12115;47.128;15.422;2022-10-31T18:31:56;13.80;99.90
23869;DHT22;12115;47.128;15.422;2022-10-31T18:34:35;13.80;99.90